Aviation Digital Data Service (ADDS)

Output produced by METARs form (1408 UTC 22 April 2019)
found at http://www.aviationweather.gov/metar/data/
 
Forecast for: HEAX (ALEXANDRIA/NOUZH, EG)
Text: TAF HEAX 221100Z 2212/2318 31012KT 9999 SCT020
Forecast period: 1200 UTC 22 April 2019 to 0400 UTC 23 April 2019
Forecast type: FROM: standard forecast or significant change
Winds: from the NW (310 degrees) at 14 MPH (12 knots; 6.2 m/s)
Visibility: 6 or more miles 10+ km)
Ceiling: at least 12,000 feet AGL
Clouds: scattered clouds at 2000 feet AGL
Weather: no significant weather forecast for this period
Text: BECMG 2304/2306 04010KT
Forecast period: 0400 to 1800 UTC 23 April 2019
Forecast type: BECOMING: Conditions expected to become as follows by 0600 UTC 23 April 2019
Winds: from the NE (40 degrees) at 12 MPH (10 knots; 5.1 m/s)
Visibility: 6 or more miles 10+ km)
Ceiling: at least 12,000 feet AGL
Clouds: scattered clouds at 2000 feet AGL
Weather: no significant weather forecast for this period